Time;durP1;ratioP1;P1;durP2;ratioP2;P2;SDS_P1;SDS_P2;PMS_P1;PMS_P2;Temp;Humidity;BMP_temperature;BMP_pressure;BME280_temperature;BME280_humidity;BME280_pressure;Samples;Min_cycle;Max_cycle;Signal;HPM_P1;HPM_P2
2021/12/14 00:02:09;;;;;;;22.52;9.18;;;;;;;;;;5024784;28;20030;-57
2021/12/14 00:04:37;;;;;;;23.13;8.77;;;;;;;;;;5030117;28;20029;-55
2021/12/14 00:07:09;;;;;;;19.85;9.45;;;;;;;;;;5027257;28;20040;-55
2021/12/14 00:09:39;;;;;;;19.48;10.07;;;;;;;;;;5029100;28;20366;-55
2021/12/14 00:12:28;;;;;;;17.40;8.27;;;;;;;;;;5025921;28;20030;-58
2021/12/14 00:17:25;;;;;;;18.73;9.25;;;;;;;;;;5027834;28;20037;-56
2021/12/14 00:19:53;;;;;;;18.52;9.55;;;;;;;;;;5029078;28;20056;-58
2021/12/14 00:22:28;;;;;;;21.08;9.98;;;;;;;;;;5033876;28;20487;-58
2021/12/14 00:24:55;;;;;;;17.95;8.80;;;;;;;;;;5025622;28;20021;-55
2021/12/14 00:27:23;;;;;;;20.20;9.30;;;;;;;;;;5027632;28;20113;-57
2021/12/14 00:29:51;;;;;;;18.08;8.73;;;;;;;;;;5032884;28;20029;-57
2021/12/14 00:32:20;;;;;;;18.83;9.20;;;;;;;;;;5030667;28;20037;-56
2021/12/14 00:34:50;;;;;;;19.83;9.50;;;;;;;;;;5033348;28;20081;-55
2021/12/14 00:37:22;;;;;;;18.25;8.48;;;;;;;;;;5023294;28;20030;-56
2021/12/14 00:39:49;;;;;;;21.55;10.05;;;;;;;;;;5030293;28;20105;-56
2021/12/14 00:42:15;;;;;;;14.32;7.43;;;;;;;;;;5026695;28;20079;-57
2021/12/14 00:44:41;;;;;;;17.02;8.48;;;;;;;;;;5030813;28;20124;-58
2021/12/14 00:47:07;;;;;;;19.63;8.80;;;;;;;;;;5027989;28;20080;-60
2021/12/14 00:49:34;;;;;;;20.33;9.93;;;;;;;;;;5033346;28;20029;-55
2021/12/14 00:52:00;;;;;;;15.82;8.18;;;;;;;;;;5031704;28;20053;-56
2021/12/14 00:54:26;;;;;;;18.45;9.20;;;;;;;;;;5025836;28;20032;-57
2021/12/14 00:56:53;;;;;;;14.18;7.68;;;;;;;;;;5031052;28;20030;-54
2021/12/14 00:59:19;;;;;;;16.90;8.80;;;;;;;;;;5029083;28;20033;-57
2021/12/14 01:01:48;;;;;;;21.33;9.70;;;;;;;;;;5024512;28;20105;-59
2021/12/14 01:04:16;;;;;;;16.98;8.48;;;;;;;;;;5024435;28;20144;-59
2021/12/14 01:06:44;;;;;;;15.55;7.45;;;;;;;;;;5030380;28;20056;-60
2021/12/14 01:09:10;;;;;;;17.90;8.80;;;;;;;;;;5023752;28;20394;-58
2021/12/14 01:11:42;;;;;;;19.13;8.15;;;;;;;;;;5019650;28;20503;-58
2021/12/14 01:14:15;;;;;;;16.65;7.65;;;;;;;;;;5028549;28;20030;-58
2021/12/14 01:16:53;;;;;;;15.47;7.93;;;;;;;;;;5023075;28;20351;-58
2021/12/14 01:19:25;;;;;;;16.63;8.13;;;;;;;;;;5026697;28;20029;-58
2021/12/14 01:24:42;;;;;;;15.68;8.02;;;;;;;;;;5021126;28;20029;-57
2021/12/14 01:27:10;;;;;;;19.30;8.55;;;;;;;;;;5021038;28;20022;-57
2021/12/14 01:29:37;;;;;;;17.08;8.77;;;;;;;;;;5024335;28;20021;-58
2021/12/14 01:32:03;;;;;;;16.13;7.78;;;;;;;;;;5025353;28;20029;-58
2021/12/14 01:34:32;;;;;;;15.25;7.72;;;;;;;;;;5027024;28;20037;-58
2021/12/14 01:37:04;;;;;;;15.00;7.85;;;;;;;;;;5028362;28;20026;-58
2021/12/14 01:42:09;;;;;;;17.67;8.63;;;;;;;;;;5020891;28;20030;-58
2021/12/14 01:44:39;;;;;;;14.93;7.80;;;;;;;;;;5029831;28;20022;-58
2021/12/14 01:47:10;;;;;;;15.60;7.93;;;;;;;;;;5020355;28;20056;-58
2021/12/14 01:49:36;;;;;;;18.08;7.90;;;;;;;;;;5022826;28;20108;-58
2021/12/14 01:52:05;;;;;;;15.43;7.28;;;;;;;;;;5019828;28;20049;-58
2021/12/14 01:54:33;;;;;;;14.23;7.35;;;;;;;;;;5026588;28;20037;-57
2021/12/14 01:57:02;;;;;;;14.45;7.50;;;;;;;;;;5032012;28;20073;-56
2021/12/14 01:59:35;;;;;;;11.65;5.78;;;;;;;;;;5024659;28;20033;-55
2021/12/14 02:02:20;;;;;;;11.85;5.78;;;;;;;;;;5033298;28;20026;-55
2021/12/14 02:04:47;;;;;;;14.38;6.68;;;;;;;;;;5025729;28;20043;-58
2021/12/14 02:07:15;;;;;;;13.80;6.57;;;;;;;;;;5023645;28;20041;-58
2021/12/14 02:09:41;;;;;;;11.40;6.28;;;;;;;;;;5028709;28;20018;-56
2021/12/14 02:12:10;;;;;;;10.95;5.63;;;;;;;;;;5029895;28;20087;-56
2021/12/14 02:14:36;;;;;;;12.88;6.53;;;;;;;;;;5027472;28;20029;-56
2021/12/14 02:17:03;;;;;;;12.25;5.88;;;;;;;;;;5024347;28;20108;-58
2021/12/14 02:19:30;;;;;;;12.68;6.38;;;;;;;;;;5030072;28;20037;-54
2021/12/14 02:21:58;;;;;;;12.27;6.00;;;;;;;;;;5029810;28;20556;-58
2021/12/14 02:24:25;;;;;;;14.43;6.68;;;;;;;;;;5026068;28;20025;-57
2021/12/14 02:26:52;;;;;;;11.88;6.10;;;;;;;;;;5027212;28;20041;-57
2021/12/14 02:29:26;;;;;;;11.40;5.38;;;;;;;;;;5033099;28;20036;-56
2021/12/14 02:31:53;;;;;;;13.63;6.68;;;;;;;;;;5031007;28;20034;-57
2021/12/14 02:34:19;;;;;;;10.75;5.45;;;;;;;;;;5026761;28;20049;-57
2021/12/14 02:36:46;;;;;;;15.50;6.75;;;;;;;;;;5027757;28;20112;-57
2021/12/14 02:39:24;;;;;;;10.93;5.80;;;;;;;;;;5027813;28;20029;-55
2021/12/14 02:41:52;;;;;;;10.02;5.40;;;;;;;;;;5024840;28;20105;-56
2021/12/14 02:44:19;;;;;;;10.85;5.70;;;;;;;;;;5032590;28;20049;-56
2021/12/14 02:46:47;;;;;;;12.38;5.65;;;;;;;;;;5032499;28;20022;-52
2021/12/14 02:49:15;;;;;;;11.32;5.68;;;;;;;;;;5023854;28;20037;-57
2021/12/14 02:51:42;;;;;;;11.32;5.68;;;;;;;;;;5025702;28;20112;-57
2021/12/14 02:54:17;;;;;;;10.93;5.57;;;;;;;;;;5034139;28;20091;-57
2021/12/14 02:56:45;;;;;;;11.07;5.85;;;;;;;;;;5033698;28;20477;-57
2021/12/14 02:59:13;;;;;;;11.10;5.65;;;;;;;;;;5028675;28;20029;-57
2021/12/14 03:01:40;;;;;;;10.95;5.50;;;;;;;;;;5029854;28;20094;-57
2021/12/14 03:04:07;;;;;;;10.90;5.30;;;;;;;;;;5024550;28;20022;-56
2021/12/14 03:06:44;;;;;;;9.63;5.07;;;;;;;;;;5026274;28;20502;-57
2021/12/14 03:09:20;;;;;;;10.82;4.95;;;;;;;;;;5026244;28;20025;-58
2021/12/14 03:11:46;;;;;;;9.13;5.03;;;;;;;;;;5024391;28;20029;-57
2021/12/14 03:14:12;;;;;;;10.13;5.13;;;;;;;;;;5021229;28;20029;-57
2021/12/14 03:16:39;;;;;;;13.30;5.88;;;;;;;;;;5030807;28;20025;-58
2021/12/14 03:19:06;;;;;;;9.73;5.07;;;;;;;;;;5023585;28;20088;-58
2021/12/14 03:21:37;;;;;;;11.23;5.10;;;;;;;;;;5023596;28;20022;-58
2021/12/14 03:24:05;;;;;;;12.93;4.85;;;;;;;;;;5033712;28;20044;-58
2021/12/14 03:26:33;;;;;;;11.55;5.32;;;;;;;;;;5027305;28;20028;-58
2021/12/14 03:29:05;;;;;;;11.13;5.93;;;;;;;;;;5030270;28;20532;-58
2021/12/14 03:31:33;;;;;;;11.13;5.63;;;;;;;;;;5024043;28;20038;-58
2021/12/14 03:34:02;;;;;;;12.02;5.20;;;;;;;;;;5028228;28;20128;-56
2021/12/14 03:36:34;;;;;;;9.35;5.20;;;;;;;;;;5030373;28;20025;-57
2021/12/14 03:39:08;;;;;;;10.50;5.35;;;;;;;;;;5030160;28;20033;-58
2021/12/14 03:41:36;;;;;;;14.02;5.90;;;;;;;;;;5027821;28;20055;-58
2021/12/14 03:44:07;;;;;;;10.77;5.43;;;;;;;;;;5028965;28;20100;-58
2021/12/14 03:46:35;;;;;;;14.68;5.38;;;;;;;;;;5022973;28;20139;-58
2021/12/14 03:49:03;;;;;;;12.07;5.43;;;;;;;;;;5027870;28;20029;-55
2021/12/14 03:51:29;;;;;;;10.90;5.25;;;;;;;;;;5028189;28;20030;-58
2021/12/14 03:53:56;;;;;;;12.38;5.30;;;;;;;;;;5028150;28;20084;-58
2021/12/14 03:56:23;;;;;;;11.88;5.57;;;;;;;;;;5026387;28;20041;-54
2021/12/14 03:58:50;;;;;;;12.02;5.75;;;;;;;;;;5032901;28;20074;-57
2021/12/14 04:01:28;;;;;;;13.75;6.03;;;;;;;;;;5028560;28;20033;-58
2021/12/14 04:03:56;;;;;;;12.05;6.05;;;;;;;;;;5033245;28;20060;-58
2021/12/14 04:06:22;;;;;;;12.50;5.68;;;;;;;;;;5028707;28;20053;-58
2021/12/14 04:08:48;;;;;;;13.10;6.13;;;;;;;;;;5028450;28;20473;-56
2021/12/14 04:11:15;;;;;;;12.88;5.65;;;;;;;;;;5031264;28;20108;-56
2021/12/14 04:13:45;;;;;;;12.20;5.70;;;;;;;;;;5031032;28;20425;-57
2021/12/14 04:16:13;;;;;;;13.32;6.03;;;;;;;;;;5021762;28;20113;-56
2021/12/14 04:18:40;;;;;;;13.10;5.72;;;;;;;;;;5031407;28;20108;-58
2021/12/14 04:21:06;;;;;;;10.27;5.05;;;;;;;;;;5025973;28;20028;-57
2021/12/14 04:23:34;;;;;;;13.00;5.88;;;;;;;;;;5026955;28;20689;-56
2021/12/14 04:26:01;;;;;;;14.02;5.78;;;;;;;;;;5024855;28;20026;-56
2021/12/14 04:28:30;;;;;;;11.93;6.07;;;;;;;;;;5029759;28;20029;-58
2021/12/14 04:30:56;;;;;;;14.02;5.85;;;;;;;;;;5027673;28;20021;-54
2021/12/14 04:33:24;;;;;;;15.43;6.50;;;;;;;;;;5025128;28;20038;-55
2021/12/14 04:35:51;;;;;;;14.23;5.72;;;;;;;;;;5030118;28;20087;-55
2021/12/14 04:38:26;;;;;;;13.00;6.25;;;;;;;;;;5030303;28;20116;-56
2021/12/14 04:52:01;;;;;;;14.57;6.50;;;;;;;;;;5030894;28;20393;-55
2021/12/14 04:54:33;;;;;;;12.90;6.15;;;;;;;;;;5025756;28;20025;-57
2021/12/14 04:56:59;;;;;;;13.27;5.90;;;;;;;;;;5025154;28;20032;-56
2021/12/14 04:59:27;;;;;;;14.90;6.13;;;;;;;;;;5028872;28;20382;-58
2021/12/14 05:01:55;;;;;;;11.85;6.13;;;;;;;;;;5024890;28;20028;-57
2021/12/14 05:04:23;;;;;;;15.25;6.18;;;;;;;;;;5025245;28;20351;-55
2021/12/14 05:06:56;;;;;;;13.05;6.10;;;;;;;;;;5025176;28;20078;-58
2021/12/14 05:09:31;;;;;;;12.27;5.90;;;;;;;;;;5028202;28;20029;-58
2021/12/14 05:11:57;;;;;;;10.75;5.22;;;;;;;;;;5027483;28;20029;-54
2021/12/14 05:14:25;;;;;;;16.77;6.80;;;;;;;;;;5026957;28;20031;-53
2021/12/14 05:16:56;;;;;;;12.60;5.45;;;;;;;;;;5022284;28;20033;-55
2021/12/14 05:19:24;;;;;;;11.50;5.35;;;;;;;;;;5028397;28;20401;-58
2021/12/14 05:21:50;;;;;;;12.13;5.22;;;;;;;;;;5029082;28;20087;-55
2021/12/14 05:24:17;;;;;;;13.10;5.90;;;;;;;;;;5029720;28;20424;-58
2021/12/14 05:26:44;;;;;;;12.50;5.45;;;;;;;;;;5029767;28;20104;-56
2021/12/14 05:29:11;;;;;;;12.45;5.40;;;;;;;;;;5028405;28;20018;-56
2021/12/14 05:31:47;;;;;;;12.32;5.18;;;;;;;;;;5023080;28;20410;-57
2021/12/14 05:34:14;;;;;;;16.25;6.38;;;;;;;;;;5027617;28;20053;-54
2021/12/14 05:36:41;;;;;;;12.93;5.50;;;;;;;;;;5021857;28;20029;-56
2021/12/14 05:39:25;;;;;;;11.57;5.50;;;;;;;;;;5032894;28;20429;-56
2021/12/14 05:44:44;;;;;;;14.65;6.43;;;;;;;;;;5029013;28;20056;-53
2021/12/14 05:47:12;;;;;;;10.75;5.55;;;;;;;;;;5030194;28;20067;-56
2021/12/14 05:49:39;;;;;;;12.85;5.82;;;;;;;;;;5034420;28;20116;-55
2021/12/14 05:52:12;;;;;;;12.18;5.43;;;;;;;;;;5033889;28;20029;-56
2021/12/14 05:54:38;;;;;;;12.35;5.15;;;;;;;;;;5028797;28;20137;-57
2021/12/14 05:57:06;;;;;;;13.88;5.80;;;;;;;;;;5030817;28;20029;-55
2021/12/14 05:59:33;;;;;;;12.02;5.80;;;;;;;;;;5029411;28;20115;-56
2021/12/14 06:02:01;;;;;;;13.25;5.40;;;;;;;;;;5028172;28;20516;-56
2021/12/14 06:04:32;;;;;;;12.18;5.57;;;;;;;;;;5029811;28;20037;-56
2021/12/14 06:06:58;;;;;;;11.40;5.85;;;;;;;;;;5024097;28;20026;-56
2021/12/14 06:09:28;;;;;;;12.38;5.72;;;;;;;;;;5028179;28;20030;-56
2021/12/14 06:11:56;;;;;;;10.52;5.13;;;;;;;;;;5029680;28;20040;-56
2021/12/14 06:14:24;;;;;;;14.32;5.85;;;;;;;;;;5033340;28;20389;-56
2021/12/14 06:16:52;;;;;;;12.30;5.63;;;;;;;;;;5033170;28;20025;-56
2021/12/14 06:19:22;;;;;;;11.55;5.45;;;;;;;;;;5030902;28;20037;-53
2021/12/14 06:21:50;;;;;;;10.68;5.32;;;;;;;;;;5028291;28;20434;-55
2021/12/14 06:24:16;;;;;;;9.18;5.10;;;;;;;;;;5026131;28;20091;-56
2021/12/14 06:26:44;;;;;;;11.95;5.13;;;;;;;;;;5027980;28;20040;-54
2021/12/14 06:29:12;;;;;;;13.30;5.90;;;;;;;;;;5030980;28;20083;-53
2021/12/14 06:31:40;;;;;;;13.43;5.57;;;;;;;;;;5026688;28;20375;-56
2021/12/14 06:34:13;;;;;;;12.27;5.75;;;;;;;;;;5032298;28;20456;-56
2021/12/14 06:36:49;;;;;;;11.10;6.10;;;;;;;;;;5029138;28;20036;-55
2021/12/14 06:39:15;;;;;;;10.23;5.13;;;;;;;;;;5031034;28;20045;-55
2021/12/14 06:41:41;;;;;;;13.20;5.03;;;;;;;;;;5023456;28;20029;-52
2021/12/14 06:44:07;;;;;;;11.23;5.57;;;;;;;;;;5033302;28;20018;-56
2021/12/14 06:46:35;;;;;;;11.05;4.60;;;;;;;;;;5034307;28;20425;-54
2021/12/14 06:49:07;;;;;;;9.50;4.78;;;;;;;;;;5025730;28;20651;-56
2021/12/14 06:51:36;;;;;;;13.57;5.95;;;;;;;;;;5023097;28;20033;-54
2021/12/14 06:54:04;;;;;;;9.65;4.57;;;;;;;;;;5029586;28;20025;-53
2021/12/14 06:56:31;;;;;;;9.32;5.00;;;;;;;;;;5029387;28;20057;-55
2021/12/14 06:58:59;;;;;;;10.75;4.72;;;;;;;;;;5022783;28;20043;-51
2021/12/14 07:01:30;;;;;;;9.35;4.68;;;;;;;;;;5025433;28;20021;-55
2021/12/14 07:04:01;;;;;;;10.20;4.95;;;;;;;;;;5030442;28;20036;-54
2021/12/14 07:06:29;;;;;;;10.93;4.95;;;;;;;;;;5026869;28;20048;-56
2021/12/14 07:09:03;;;;;;;10.82;4.57;;;;;;;;;;5026704;28;20061;-55
2021/12/14 07:11:29;;;;;;;9.20;4.20;;;;;;;;;;5026124;28;20541;-56
2021/12/14 07:13:56;;;;;;;13.48;4.80;;;;;;;;;;5025701;28;20053;-55
2021/12/14 07:16:31;;;;;;;11.45;4.60;;;;;;;;;;5025362;28;20486;-50
2021/12/14 07:18:58;;;;;;;10.35;4.72;;;;;;;;;;5025692;28;20026;-55
2021/12/14 07:21:36;;;;;;;10.60;5.07;;;;;;;;;;5019571;28;20691;-56
2021/12/14 07:24:21;;;;;;;9.85;5.38;;;;;;;;;;5021840;28;20034;-53
2021/12/14 07:26:49;;;;;;;9.30;5.07;;;;;;;;;;5026229;28;20424;-55
2021/12/14 07:29:21;;;;;;;11.35;5.53;;;;;;;;;;5019561;28;20029;-56
2021/12/14 07:31:47;;;;;;;12.18;5.82;;;;;;;;;;5030291;28;20033;-55
2021/12/14 07:34:13;;;;;;;13.40;5.82;;;;;;;;;;5031263;28;20049;-56
2021/12/14 07:36:40;;;;;;;10.70;5.05;;;;;;;;;;5026481;28;20034;-56
2021/12/14 07:39:08;;;;;;;10.55;5.05;;;;;;;;;;5021807;28;20104;-56
2021/12/14 07:41:45;;;;;;;9.52;4.65;;;;;;;;;;5026533;28;20037;-56
2021/12/14 07:44:12;;;;;;;9.43;4.57;;;;;;;;;;5018330;28;20021;-53
2021/12/14 07:46:43;;;;;;;11.98;5.70;;;;;;;;;;5022337;28;20485;-53
2021/12/14 07:49:11;;;;;;;11.02;5.07;;;;;;;;;;5020702;28;20414;-55
2021/12/14 07:51:40;;;;;;;12.90;5.07;;;;;;;;;;5027243;28;20033;-57
2021/12/14 07:54:14;;;;;;;10.27;5.43;;;;;;;;;;5021581;28;20075;-55
2021/12/14 07:56:40;;;;;;;13.02;5.65;;;;;;;;;;5028551;28;20114;-54
2021/12/14 07:59:11;;;;;;;10.20;5.13;;;;;;;;;;5027682;28;20032;-55
2021/12/14 08:01:37;;;;;;;11.00;5.60;;;;;;;;;;5018578;28;20033;-56
2021/12/14 08:04:05;;;;;;;11.02;5.25;;;;;;;;;;5029621;28;20511;-57
2021/12/14 08:06:45;;;;;;;11.88;5.35;;;;;;;;;;5020168;28;20084;-56
2021/12/14 08:09:18;;;;;;;11.40;5.53;;;;;;;;;;5026983;28;20037;-54
2021/12/14 08:11:47;;;;;;;13.50;6.05;;;;;;;;;;5027814;28;20497;-54
2021/12/14 08:14:24;;;;;;;12.02;5.38;;;;;;;;;;5038827;28;20029;-56
2021/12/14 08:17:07;;;;;;;14.27;5.75;;;;;;;;;;5024901;28;20041;-54
2021/12/14 08:19:33;;;;;;;;;;;;;;;;;;5027541;28;20109;-57
2021/12/14 08:22:03;;;;;;;12.30;5.38;;;;;;;;;;5025878;28;20330;-53
2021/12/14 08:24:30;;;;;;;13.13;5.45;;;;;;;;;;5027062;28;20046;-55
2021/12/14 08:26:58;;;;;;;9.82;5.28;;;;;;;;;;5026740;28;20025;-57
2021/12/14 08:29:25;;;;;;;10.32;5.95;;;;;;;;;;5027687;28;20427;-55
2021/12/14 08:32:06;;;;;;;11.88;5.75;;;;;;;;;;5027033;28;20082;-57
2021/12/14 08:34:34;;;;;;;12.82;5.85;;;;;;;;;;5026886;28;20045;-54
2021/12/14 08:37:08;;;;;;;12.85;6.25;;;;;;;;;;5042806;28;20028;-55
2021/12/14 08:39:51;;;;;;;10.73;5.60;;;;;;;;;;5021109;28;20581;-57
2021/12/14 08:42:32;;;;;;;13.17;5.80;;;;;;;;;;5017598;28;20458;-55
2021/12/14 08:44:59;;;;;;;11.73;5.78;;;;;;;;;;5027426;28;20028;-53
2021/12/14 08:47:32;;;;;;;13.98;7.20;;;;;;;;;;5028536;28;20079;-54
2021/12/14 08:49:59;;;;;;;12.27;5.47;;;;;;;;;;5017862;28;20453;-55
2021/12/14 08:52:26;;;;;;;11.10;5.45;;;;;;;;;;5021585;28;20029;-56
2021/12/14 08:54:52;;;;;;;12.43;6.50;;;;;;;;;;5025151;28;20021;-56
2021/12/14 08:57:23;;;;;;;14.77;5.93;;;;;;;;;;5027038;28;20029;-56
2021/12/14 08:59:52;;;;;;;12.38;6.43;;;;;;;;;;5025776;28;20033;-57
2021/12/14 09:02:18;;;;;;;11.00;5.57;;;;;;;;;;5026454;28;20193;-57
2021/12/14 09:04:49;;;;;;;11.82;5.95;;;;;;;;;;5023664;28;20730;-57
2021/12/14 09:07:18;;;;;;;11.30;6.05;;;;;;;;;;5029235;28;20025;-55
2021/12/14 09:09:44;;;;;;;9.10;5.00;;;;;;;;;;5028705;28;20124;-53
2021/12/14 09:12:13;;;;;;;10.80;5.90;;;;;;;;;;5031619;28;20100;-57
2021/12/14 09:14:41;;;;;;;11.60;5.72;;;;;;;;;;5021346;28;20071;-57
2021/12/14 09:17:08;;;;;;;10.73;5.68;;;;;;;;;;5028695;28;20034;-55
2021/12/14 09:19:36;;;;;;;11.18;5.57;;;;;;;;;;5026634;28;20025;-57
2021/12/14 09:22:06;;;;;;;10.85;5.40;;;;;;;;;;5029353;28;20022;-57
2021/12/14 09:24:32;;;;;;;11.23;5.50;;;;;;;;;;5029137;28;20029;-57
2021/12/14 09:27:00;;;;;;;9.85;5.15;;;;;;;;;;5031604;28;20026;-57
2021/12/14 09:29:27;;;;;;;9.65;5.32;;;;;;;;;;5031187;28;20028;-55
2021/12/14 09:31:56;;;;;;;12.40;5.82;;;;;;;;;;5030897;28;20045;-56
2021/12/14 09:34:23;;;;;;;10.63;5.38;;;;;;;;;;5030869;28;20060;-57
2021/12/14 09:36:51;;;;;;;11.65;5.47;;;;;;;;;;5028853;28;20481;-52
2021/12/14 09:39:25;;;;;;;13.20;5.88;;;;;;;;;;5026981;28;20030;-56
2021/12/14 09:41:53;;;;;;;10.35;5.55;;;;;;;;;;5030857;28;20022;-55
2021/12/14 09:44:21;;;;;;;10.23;5.10;;;;;;;;;;5028109;28;20065;-55
2021/12/14 09:46:48;;;;;;;10.65;4.93;;;;;;;;;;5029128;28;20071;-56
2021/12/14 09:49:14;;;;;;;9.95;5.28;;;;;;;;;;5028546;28;20037;-57
2021/12/14 09:51:43;;;;;;;10.80;5.55;;;;;;;;;;5028782;28;20087;-55
2021/12/14 09:54:10;;;;;;;13.15;5.20;;;;;;;;;;5027518;28;20041;-54
2021/12/14 09:56:39;;;;;;;11.25;5.25;;;;;;;;;;5031121;28;20164;-54
2021/12/14 09:59:06;;;;;;;10.20;5.40;;;;;;;;;;5028308;28;20044;-56
2021/12/14 10:01:35;;;;;;;13.27;5.78;;;;;;;;;;5029476;28;20030;-56
2021/12/14 10:04:05;;;;;;;10.02;4.88;;;;;;;;;;5032639;28;20025;-54
2021/12/14 10:06:32;;;;;;;9.45;5.00;;;;;;;;;;5035791;28;20116;-52
2021/12/14 10:09:03;;;;;;;9.20;4.60;;;;;;;;;;5028888;28;20041;-55
2021/12/14 10:12:01;;;;;;;11.38;5.78;;;;;;;;;;5028159;28;20166;-55
2021/12/14 10:14:32;;;;;;;10.68;5.30;;;;;;;;;;5029464;28;20058;-54
2021/12/14 10:16:59;;;;;;;8.07;4.97;;;;;;;;;;5027404;28;20101;-54
2021/12/14 10:19:26;;;;;;;10.15;5.43;;;;;;;;;;5034316;28;20537;-55
2021/12/14 10:21:57;;;;;;;11.40;5.63;;;;;;;;;;5032794;28;20038;-53
2021/12/14 10:24:23;;;;;;;11.13;5.68;;;;;;;;;;5031720;28;20022;-57
2021/12/14 10:26:52;;;;;;;9.52;5.15;;;;;;;;;;5030258;28;20022;-55
2021/12/14 10:29:18;;;;;;;10.48;5.30;;;;;;;;;;5032217;28;20034;-56
2021/12/14 10:31:48;;;;;;;10.82;6.15;;;;;;;;;;5030653;28;20049;-55
2021/12/14 10:34:18;;;;;;;9.45;5.60;;;;;;;;;;5029006;28;20045;-55
2021/12/14 10:37:00;;;;;;;12.27;6.00;;;;;;;;;;5026272;28;20822;-54
2021/12/14 10:44:47;;;;;;;11.48;4.90;;;;;;;;;;5029908;28;20044;-56
2021/12/14 10:47:14;;;;;;;8.98;5.10;;;;;;;;;;5029126;28;20041;-56
2021/12/14 10:49:40;;;;;;;10.07;5.18;;;;;;;;;;5030519;28;20025;-54
2021/12/14 10:52:10;;;;;;;9.13;4.72;;;;;;;;;;5033411;28;20032;-56
2021/12/14 10:54:36;;;;;;;11.52;5.20;;;;;;;;;;5043086;28;20029;-55
2021/12/14 10:57:10;;;;;;;10.23;5.00;;;;;;;;;;5033998;28;20105;-55
2021/12/14 10:59:39;;;;;;;8.80;4.47;;;;;;;;;;5028681;28;20476;-55
2021/12/14 11:02:06;;;;;;;9.88;5.03;;;;;;;;;;5025559;28;20446;-57
2021/12/14 11:04:38;;;;;;;9.85;5.20;;;;;;;;;;5030168;28;20026;-57
2021/12/14 11:07:07;;;;;;;10.75;5.10;;;;;;;;;;5035526;28;20382;-57
2021/12/14 11:09:40;;;;;;;11.75;5.30;;;;;;;;;;5029536;28;20036;-54
2021/12/14 11:12:07;;;;;;;9.70;4.72;;;;;;;;;;5033399;28;20116;-57
2021/12/14 11:14:35;;;;;;;9.50;5.22;;;;;;;;;;5032255;28;20040;-57
2021/12/14 11:19:51;;;;;;;13.10;5.30;;;;;;;;;;5025923;28;20136;-55
2021/12/14 11:22:22;;;;;;;9.13;4.72;;;;;;;;;;5032312;28;20036;-55
2021/12/14 11:24:51;;;;;;;8.68;4.95;;;;;;;;;;5035916;28;20022;-57
2021/12/14 11:27:20;;;;;;;8.68;4.03;;;;;;;;;;5029733;28;20423;-57
2021/12/14 11:29:50;;;;;;;8.32;4.50;;;;;;;;;;5034908;28;20036;-57
2021/12/14 11:32:21;;;;;;;9.50;4.82;;;;;;;;;;5030657;28;20128;-56
2021/12/14 11:34:47;;;;;;;9.15;4.35;;;;;;;;;;5027025;28;20041;-52
2021/12/14 11:37:16;;;;;;;8.30;5.30;;;;;;;;;;5031038;28;20107;-54
2021/12/14 11:39:45;;;;;;;9.18;4.88;;;;;;;;;;5042872;28;20040;-55
2021/12/14 11:42:12;;;;;;;9.68;4.75;;;;;;;;;;5038892;28;20507;-55
2021/12/14 11:44:40;;;;;;;9.88;5.22;;;;;;;;;;5036489;28;20373;-55
2021/12/14 11:47:06;;;;;;;10.07;4.50;;;;;;;;;;5033038;28;20044;-56
2021/12/14 11:49:41;;;;;;;7.75;4.60;;;;;;;;;;5031167;28;20029;-57
2021/12/14 11:52:07;;;;;;;8.10;4.65;;;;;;;;;;5031276;28;20379;-55
2021/12/14 11:54:40;;;;;;;10.27;4.80;;;;;;;;;;5027969;28;20060;-55
2021/12/14 11:57:07;;;;;;;10.90;5.60;;;;;;;;;;5021330;28;20112;-56
2021/12/14 11:59:33;;;;;;;9.05;5.05;;;;;;;;;;5029322;28;20373;-54
2021/12/14 12:02:01;;;;;;;9.02;5.00;;;;;;;;;;5033145;28;20100;-56
2021/12/14 12:04:37;;;;;;;9.60;5.38;;;;;;;;;;5024010;28;20104;-56
2021/12/14 12:09:41;;;;;;;8.57;4.82;;;;;;;;;;5030384;28;20440;-56
2021/12/14 12:12:07;;;;;;;9.50;5.32;;;;;;;;;;5025780;28;20091;-53
2021/12/14 12:14:33;;;;;;;8.48;4.30;;;;;;;;;;5022569;28;20029;-53
2021/12/14 12:17:28;;;;;;;10.48;5.10;;;;;;;;;;5032191;28;20025;-57
2021/12/14 12:20:03;;;;;;;9.10;4.68;;;;;;;;;;5022900;28;20046;-55
2021/12/14 12:22:49;;;;;;;11.43;5.70;;;;;;;;;;5028384;28;20037;-54
2021/12/14 12:25:17;;;;;;;11.50;5.47;;;;;;;;;;5023688;28;20033;-55
2021/12/14 12:27:53;;;;;;;8.50;4.45;;;;;;;;;;5031725;28;20060;-53
2021/12/14 12:30:36;;;;;;;10.88;5.28;;;;;;;;;;5036463;28;20028;-57
2021/12/14 12:33:08;;;;;;;8.27;4.22;;;;;;;;;;5020109;28;20037;-56
2021/12/14 12:35:37;;;;;;;9.80;4.55;;;;;;;;;;5032276;28;20041;-54
2021/12/14 12:38:16;;;;;;;10.23;5.13;;;;;;;;;;5030790;28;20038;-57
2021/12/14 12:40:48;;;;;;;12.10;5.53;;;;;;;;;;5026786;28;20394;-57
2021/12/14 12:43:20;;;;;;;10.77;4.97;;;;;;;;;;5031043;28;20045;-54
2021/12/14 12:45:58;;;;;;;9.68;5.55;;;;;;;;;;5027624;28;20028;-57
2021/12/14 12:48:38;;;;;;;9.75;4.65;;;;;;;;;;5032014;28;20501;-56
2021/12/14 12:51:04;;;;;;;10.55;5.15;;;;;;;;;;5031670;28;20037;-57
2021/12/14 12:53:30;;;;;;;12.27;4.85;;;;;;;;;;5030147;28;20037;-56
2021/12/14 12:56:04;;;;;;;11.30;5.18;;;;;;;;;;5026555;28;20030;-55
2021/12/14 12:58:30;;;;;;;8.60;5.00;;;;;;;;;;5029683;28;20039;-55
2021/12/14 13:00:58;;;;;;;9.63;5.10;;;;;;;;;;5030125;28;20037;-53
2021/12/14 13:03:32;;;;;;;10.55;5.35;;;;;;;;;;5025619;28;20030;-55
2021/12/14 13:05:58;;;;;;;9.73;4.88;;;;;;;;;;5028299;28;20037;-56
2021/12/14 13:08:29;;;;;;;11.98;5.72;;;;;;;;;;5028231;28;20033;-55
2021/12/14 13:11:12;;;;;;;11.82;4.95;;;;;;;;;;5025365;28;20386;-55
2021/12/14 13:13:43;;;;;;;12.27;6.05;;;;;;;;;;5030105;28;20155;-53
2021/12/14 13:16:12;;;;;;;10.20;5.50;;;;;;;;;;5024314;28;20534;-56
2021/12/14 13:18:46;;;;;;;13.90;6.38;;;;;;;;;;5023673;28;20025;-56
2021/12/14 13:21:17;;;;;;;16.27;5.55;;;;;;;;;;5024719;28;20033;-55
2021/12/14 13:23:46;;;;;;;10.68;5.30;;;;;;;;;;5031568;28;20109;-55
2021/12/14 13:26:38;;;;;;;12.85;6.32;;;;;;;;;;5030704;28;20025;-56
2021/12/14 13:29:15;;;;;;;11.73;5.95;;;;;;;;;;5021372;28;20096;-53
2021/12/14 13:31:50;;;;;;;12.65;5.63;;;;;;;;;;5031208;28;20538;-57
2021/12/14 13:34:24;;;;;;;10.90;5.80;;;;;;;;;;5024181;28;20065;-57
2021/12/14 13:36:51;;;;;;;12.77;6.18;;;;;;;;;;5024944;28;20030;-56
2021/12/14 13:39:18;;;;;;;11.88;5.88;;;;;;;;;;5031451;28;20038;-53
2021/12/14 13:42:06;;;;;;;13.48;6.53;;;;;;;;;;5029569;28;20045;-56
2021/12/14 13:44:44;;;;;;;11.27;6.15;;;;;;;;;;5026363;28;20128;-54
2021/12/14 13:47:11;;;;;;;16.38;6.85;;;;;;;;;;5031331;28;20020;-57
2021/12/14 13:49:38;;;;;;;11.65;5.80;;;;;;;;;;5031977;28;20029;-57
2021/12/14 13:52:05;;;;;;;15.15;7.57;;;;;;;;;;5034218;28;20093;-56
2021/12/14 13:54:51;;;;;;;16.30;6.50;;;;;;;;;;5032741;28;20061;-55
2021/12/14 13:57:17;;;;;;;13.88;6.80;;;;;;;;;;5033427;28;20116;-56
2021/12/14 13:59:43;;;;;;;14.23;6.70;;;;;;;;;;5031051;28;20091;-57
2021/12/14 14:02:09;;;;;;;16.85;7.53;;;;;;;;;;5029226;28;20025;-56
2021/12/14 14:04:35;;;;;;;15.48;7.22;;;;;;;;;;5023122;28;20030;-55
2021/12/14 14:07:01;;;;;;;14.45;6.70;;;;;;;;;;5029264;28;20021;-56
2021/12/14 14:09:28;;;;;;;16.77;7.13;;;;;;;;;;5032462;28;20033;-56
2021/12/14 14:11:56;;;;;;;14.52;6.50;;;;;;;;;;5035248;28;20036;-56
2021/12/14 14:14:25;;;;;;;16.70;6.95;;;;;;;;;;5035392;28;20112;-57
2021/12/14 14:16:58;;;;;;;17.38;7.75;;;;;;;;;;5035236;28;20098;-54
2021/12/14 14:19:26;;;;;;;17.48;7.47;;;;;;;;;;5031991;28;20040;-55
2021/12/14 14:21:54;;;;;;;15.13;7.32;;;;;;;;;;5032235;28;20033;-55
2021/12/14 14:24:22;;;;;;;17.48;7.20;;;;;;;;;;5034800;28;20132;-54
2021/12/14 14:26:48;;;;;;;16.58;7.60;;;;;;;;;;5033976;28;20038;-54
2021/12/14 14:29:16;;;;;;;18.40;7.75;;;;;;;;;;5034171;28;20040;-55
2021/12/14 14:31:48;;;;;;;15.18;7.65;;;;;;;;;;5034581;28;20091;-54
2021/12/14 14:34:34;;;;;;;15.52;7.20;;;;;;;;;;5033648;28;20064;-54
2021/12/14 14:37:02;;;;;;;17.45;8.20;;;;;;;;;;5026302;28;20025;-57
2021/12/14 14:39:31;;;;;;;15.85;7.22;;;;;;;;;;5033908;28;20037;-56
2021/12/14 14:41:58;;;;;;;21.55;8.98;;;;;;;;;;5031821;28;20021;-51
2021/12/14 14:44:30;;;;;;;18.75;8.45;;;;;;;;;;5033481;28;20500;-55
2021/12/14 14:47:02;;;;;;;18.38;9.15;;;;;;;;;;5030905;28;20021;-52
2021/12/14 14:49:33;;;;;;;21.80;9.15;;;;;;;;;;5033107;28;20104;-56
2021/12/14 14:52:01;;;;;;;19.23;8.90;;;;;;;;;;5030052;28;20029;-51
2021/12/14 14:54:33;;;;;;;18.98;8.77;;;;;;;;;;5033160;28;20125;-57
2021/12/14 14:57:11;;;;;;;20.67;8.65;;;;;;;;;;5027770;28;20037;-54
2021/12/14 14:59:39;;;;;;;17.15;8.00;;;;;;;;;;5022457;28;20033;-56
2021/12/14 15:02:06;;;;;;;19.00;8.30;;;;;;;;;;5028900;28;20036;-53
2021/12/14 15:04:52;;;;;;;22.73;10.00;;;;;;;;;;5030657;28;20113;-53
2021/12/14 15:07:18;;;;;;;19.02;8.40;;;;;;;;;;5030602;28;20032;-54
2021/12/14 15:09:44;;;;;;;21.17;9.93;;;;;;;;;;5024079;28;20101;-55
2021/12/14 15:12:18;;;;;;;18.02;9.13;;;;;;;;;;5029873;28;20125;-55
2021/12/14 15:14:44;;;;;;;21.95;9.27;;;;;;;;;;5027451;28;20036;-55
2021/12/14 15:17:15;;;;;;;23.88;9.20;;;;;;;;;;5026080;28;20102;-56
2021/12/14 15:19:42;;;;;;;20.90;9.82;;;;;;;;;;5027068;28;20034;-53
2021/12/14 15:22:21;;;;;;;21.38;9.30;;;;;;;;;;5028299;28;20021;-55